Kirklinton, United Kingdom

2:21 AM GMT on March 25, 2017 (GMT +0000)
Unnamed Road | | Change Station

Elev 239 ft 55.07 °N, 2.92 °W | Updated 2 minutes ago

Clear
Clear
31.6 °F
Feels Like 32 °F
N
0.6
Wind Variable Wind from ENE
Gusts 1.2 mph

Today
High -- | Low -- °F
--% Chance of Precip.
Yesterday
High -- | Low -- °F
Precip. -- in
Pressure 30.54 in
Visibility 6.2 miles
Clouds
Windchill 32 °F
Dew Point 32 °F
Humidity 100%
Rainfall 0.00 in
Snow Depth Not available.
6:00 AM 6:35 PM
Waning Crescent, 11% visible
METAR EGOM 250150Z AUTO 29006KT 9999 NCD 01/M02 Q1034
Pressure 30.54 in
Visibility 6.2 miles
Clouds
Windchill 32 °F
Dew Point 32 °F
Humidity 100%
Rainfall 0.00 in
Snow Depth Not available.
6:00 AM 6:35 PM
Waning Crescent, 11% visible
METAR EGOM 250150Z AUTO 29006KT 9999 NCD 01/M02 Q1034

Get Severe Weather Alerts

Thanks for signing up!

Be on the lookout for a verification email in your inbox.

You'll start receiving the daily forecast at 8 AM.

×

10-Day Weather Forecast

×

Almanac

Astronomy

Mar. 25, 2017 Rise Set
Actual Time
Civil Twilight
Nautical Twilight
Astronomical Twilight
Moon
Length of Visible Light
Length of Day
Tomorrow will be .
, % of the Moon is Illuminated

Today's Extremes

Country Highs Country Lows

Community

WunderPhotos

Upload Photos

1,962,540 photos uploaded!

WunderBlog® & News

Nearby

Air Quality

  Air Quality AQ Index Pollutant
Not available.

Snow Depth

Station Depth Elevation

Earthquake Activity

City Distance Mag. Time & Date
Minimum magnitude displayed is 2.5.

Earthquake Activity

City Distance Mag. Time & Date
Minimum magnitude displayed is 2.5.

Coastal Water Temperatures

Place Temperature

Stations

Nearby Weather Stations

Station Location Temp. Windchill Dew Point Humidity Wind Precip. Elev Updated Type